sensor_id;sensor_type;location;lat;lon;timestamp;temperature;humidity
3868;DHT22;1949;48.152;11.528;2024-02-21T00:01:06;10.40;43.10
3868;DHT22;1949;48.152;11.528;2024-02-21T00:03:32;10.40;43.10
3868;DHT22;1949;48.152;11.528;2024-02-21T00:05:58;10.40;43.30
3868;DHT22;1949;48.152;11.528;2024-02-21T00:08:24;10.40;43.30
3868;DHT22;1949;48.152;11.528;2024-02-21T00:10:51;10.40;43.30
3868;DHT22;1949;48.152;11.528;2024-02-21T00:13:17;10.40;43.30
3868;DHT22;1949;48.152;11.528;2024-02-21T00:15:43;10.40;43.30
3868;DHT22;1949;48.152;11.528;2024-02-21T00:18:09;10.40;43.30
3868;DHT22;1949;48.152;11.528;2024-02-21T00:20:36;10.40;43.30
3868;DHT22;1949;48.152;11.528;2024-02-21T00:23:02;10.40;43.40
3868;DHT22;1949;48.152;11.528;2024-02-21T00:25:28;10.30;43.30
3868;DHT22;1949;48.152;11.528;2024-02-21T00:27:53;10.30;43.40
3868;DHT22;1949;48.152;11.528;2024-02-21T00:30:19;10.30;43.60
3868;DHT22;1949;48.152;11.528;2024-02-21T00:32:45;10.30;43.40
3868;DHT22;1949;48.152;11.528;2024-02-21T00:35:11;10.30;43.50
3868;DHT22;1949;48.152;11.528;2024-02-21T00:37:37;10.30;43.40
3868;DHT22;1949;48.152;11.528;2024-02-21T00:40:04;10.20;43.50
3868;DHT22;1949;48.152;11.528;2024-02-21T00:42:31;10.20;43.60
3868;DHT22;1949;48.152;11.528;2024-02-21T00:44:58;10.20;43.70
3868;DHT22;1949;48.152;11.528;2024-02-21T00:47:24;10.20;43.60
3868;DHT22;1949;48.152;11.528;2024-02-21T00:49:49;10.20;43.70
3868;DHT22;1949;48.152;11.528;2024-02-21T00:52:15;10.20;43.70
3868;DHT22;1949;48.152;11.528;2024-02-21T00:54:41;10.20;43.70
3868;DHT22;1949;48.152;11.528;2024-02-21T00:57:07;10.20;43.70
3868;DHT22;1949;48.152;11.528;2024-02-21T00:59:33;10.20;43.70
3868;DHT22;1949;48.152;11.528;2024-02-21T01:01:58;10.20;43.60
3868;DHT22;1949;48.152;11.528;2024-02-21T01:04:25;10.20;43.50
3868;DHT22;1949;48.152;11.528;2024-02-21T01:06:50;10.20;43.70
3868;DHT22;1949;48.152;11.528;2024-02-21T01:09:16;10.20;43.70
3868;DHT22;1949;48.152;11.528;2024-02-21T01:11:44;10.10;43.70
3868;DHT22;1949;48.152;11.528;2024-02-21T01:14:09;10.10;43.60
3868;DHT22;1949;48.152;11.528;2024-02-21T01:16:36;10.10;43.60
3868;DHT22;1949;48.152;11.528;2024-02-21T01:19:02;10.10;43.80
3868;DHT22;1949;48.152;11.528;2024-02-21T01:21:28;10.10;43.70
3868;DHT22;1949;48.152;11.528;2024-02-21T01:23:56;10.10;43.80
3868;DHT22;1949;48.152;11.528;2024-02-21T01:26:21;10.00;43.70
3868;DHT22;1949;48.152;11.528;2024-02-21T01:28:47;10.00;43.60
3868;DHT22;1949;48.152;11.528;2024-02-21T01:31:13;10.00;43.80
3868;DHT22;1949;48.152;11.528;2024-02-21T01:33:40;10.00;44.30
3868;DHT22;1949;48.152;11.528;2024-02-21T01:36:06;9.90;44.70
3868;DHT22;1949;48.152;11.528;2024-02-21T01:38:32;9.90;44.80
3868;DHT22;1949;48.152;11.528;2024-02-21T01:40:59;10.00;44.10
3868;DHT22;1949;48.152;11.528;2024-02-21T01:43:25;10.00;44.00
3868;DHT22;1949;48.152;11.528;2024-02-21T01:45:53;10.00;43.90
3868;DHT22;1949;48.152;11.528;2024-02-21T01:48:24;10.00;43.90
3868;DHT22;1949;48.152;11.528;2024-02-21T01:50:51;10.00;44.00
3868;DHT22;1949;48.152;11.528;2024-02-21T01:53:21;10.00;44.00
3868;DHT22;1949;48.152;11.528;2024-02-21T01:55:47;10.00;43.90
3868;DHT22;1949;48.152;11.528;2024-02-21T01:58:14;10.00;43.90
3868;DHT22;1949;48.152;11.528;2024-02-21T02:00:45;9.90;44.80
3868;DHT22;1949;48.152;11.528;2024-02-21T02:03:12;9.90;44.80
3868;DHT22;1949;48.152;11.528;2024-02-21T02:05:49;9.90;45.40
3868;DHT22;1949;48.152;11.528;2024-02-21T02:08:16;9.90;45.00
3868;DHT22;1949;48.152;11.528;2024-02-21T02:10:42;9.90;45.00
3868;DHT22;1949;48.152;11.528;2024-02-21T02:13:09;9.90;45.00
3868;DHT22;1949;48.152;11.528;2024-02-21T02:15:42;9.90;44.90
3868;DHT22;1949;48.152;11.528;2024-02-21T02:18:09;9.90;45.10
3868;DHT22;1949;48.152;11.528;2024-02-21T02:20:36;9.90;45.10
3868;DHT22;1949;48.152;11.528;2024-02-21T02:23:10;9.90;45.20
3868;DHT22;1949;48.152;11.528;2024-02-21T02:25:37;9.90;45.10
3868;DHT22;1949;48.152;11.528;2024-02-21T02:28:07;10.00;44.30
3868;DHT22;1949;48.152;11.528;2024-02-21T02:30:37;10.00;44.20
3868;DHT22;1949;48.152;11.528;2024-02-21T02:33:08;10.10;44.20
3868;DHT22;1949;48.152;11.528;2024-02-21T02:35:34;10.10;44.10
3868;DHT22;1949;48.152;11.528;2024-02-21T02:38:03;10.10;44.10
3868;DHT22;1949;48.152;11.528;2024-02-21T02:40:30;10.10;44.10
3868;DHT22;1949;48.152;11.528;2024-02-21T02:42:55;10.10;44.10
3868;DHT22;1949;48.152;11.528;2024-02-21T02:45:22;10.10;44.10
3868;DHT22;1949;48.152;11.528;2024-02-21T02:47:54;10.10;44.10
3868;DHT22;1949;48.152;11.528;2024-02-21T02:50:25;10.10;44.10
3868;DHT22;1949;48.152;11.528;2024-02-21T02:52:52;10.00;44.00
3868;DHT22;1949;48.152;11.528;2024-02-21T02:55:17;10.00;44.00
3868;DHT22;1949;48.152;11.528;2024-02-21T02:57:43;10.10;44.30
3868;DHT22;1949;48.152;11.528;2024-02-21T03:00:13;10.10;44.40
3868;DHT22;1949;48.152;11.528;2024-02-21T03:02:43;10.10;44.20
3868;DHT22;1949;48.152;11.528;2024-02-21T03:05:16;10.10;44.30
3868;DHT22;1949;48.152;11.528;2024-02-21T03:07:43;10.20;44.40
3868;DHT22;1949;48.152;11.528;2024-02-21T03:10:10;10.20;44.30
3868;DHT22;1949;48.152;11.528;2024-02-21T03:12:36;10.30;44.30
3868;DHT22;1949;48.152;11.528;2024-02-21T03:15:02;10.30;44.30
3868;DHT22;1949;48.152;11.528;2024-02-21T03:17:28;10.30;44.20
3868;DHT22;1949;48.152;11.528;2024-02-21T03:19:54;10.30;44.20
3868;DHT22;1949;48.152;11.528;2024-02-21T03:22:21;10.30;44.00
3868;DHT22;1949;48.152;11.528;2024-02-21T03:24:47;10.20;44.00
3868;DHT22;1949;48.152;11.528;2024-02-21T03:27:13;10.20;44.10
3868;DHT22;1949;48.152;11.528;2024-02-21T03:29:38;10.20;44.10
3868;DHT22;1949;48.152;11.528;2024-02-21T03:32:04;10.20;44.00
3868;DHT22;1949;48.152;11.528;2024-02-21T03:34:30;10.20;44.10
3868;DHT22;1949;48.152;11.528;2024-02-21T03:36:56;10.10;44.10
3868;DHT22;1949;48.152;11.528;2024-02-21T03:39:22;10.10;44.10
3868;DHT22;1949;48.152;11.528;2024-02-21T03:41:47;10.10;44.10
3868;DHT22;1949;48.152;11.528;2024-02-21T03:44:13;10.10;44.10
3868;DHT22;1949;48.152;11.528;2024-02-21T03:46:39;10.10;44.00
3868;DHT22;1949;48.152;11.528;2024-02-21T03:49:05;10.10;44.10
3868;DHT22;1949;48.152;11.528;2024-02-21T03:51:30;10.10;44.20
3868;DHT22;1949;48.152;11.528;2024-02-21T03:53:56;10.10;44.30
3868;DHT22;1949;48.152;11.528;2024-02-21T03:56:22;10.10;44.30
3868;DHT22;1949;48.152;11.528;2024-02-21T03:58:48;10.10;44.10
3868;DHT22;1949;48.152;11.528;2024-02-21T04:01:15;10.20;44.20
3868;DHT22;1949;48.152;11.528;2024-02-21T04:03:44;10.10;44.10
3868;DHT22;1949;48.152;11.528;2024-02-21T04:06:10;10.20;44.30
3868;DHT22;1949;48.152;11.528;2024-02-21T04:08:36;10.20;44.20
3868;DHT22;1949;48.152;11.528;2024-02-21T04:11:02;10.20;44.10
3868;DHT22;1949;48.152;11.528;2024-02-21T04:13:27;10.20;44.10
3868;DHT22;1949;48.152;11.528;2024-02-21T04:15:53;10.20;44.20
3868;DHT22;1949;48.152;11.528;2024-02-21T04:18:19;10.20;44.30
3868;DHT22;1949;48.152;11.528;2024-02-21T04:20:45;10.20;44.20
3868;DHT22;1949;48.152;11.528;2024-02-21T04:23:10;10.20;44.20
3868;DHT22;1949;48.152;11.528;2024-02-21T04:25:36;10.20;44.10
3868;DHT22;1949;48.152;11.528;2024-02-21T04:28:02;10.20;44.20
3868;DHT22;1949;48.152;11.528;2024-02-21T04:30:28;10.20;44.30
3868;DHT22;1949;48.152;11.528;2024-02-21T04:33:00;10.20;44.30
3868;DHT22;1949;48.152;11.528;2024-02-21T04:35:26;10.30;44.30
3868;DHT22;1949;48.152;11.528;2024-02-21T04:37:53;10.20;44.20
3868;DHT22;1949;48.152;11.528;2024-02-21T04:40:19;10.30;44.30
3868;DHT22;1949;48.152;11.528;2024-02-21T04:42:45;10.30;44.30
3868;DHT22;1949;48.152;11.528;2024-02-21T04:45:12;10.30;44.30
3868;DHT22;1949;48.152;11.528;2024-02-21T04:47:37;10.40;44.30
3868;DHT22;1949;48.152;11.528;2024-02-21T04:50:04;10.40;44.20
3868;DHT22;1949;48.152;11.528;2024-02-21T04:52:30;10.40;44.20
3868;DHT22;1949;48.152;11.528;2024-02-21T04:54:56;10.30;44.00
3868;DHT22;1949;48.152;11.528;2024-02-21T04:57:21;10.30;44.00
3868;DHT22;1949;48.152;11.528;2024-02-21T04:59:47;10.30;44.20
3868;DHT22;1949;48.152;11.528;2024-02-21T05:02:13;10.30;44.00
3868;DHT22;1949;48.152;11.528;2024-02-21T05:04:39;10.20;44.00
3868;DHT22;1949;48.152;11.528;2024-02-21T05:07:08;10.20;44.60
3868;DHT22;1949;48.152;11.528;2024-02-21T05:09:33;10.20;44.10
3868;DHT22;1949;48.152;11.528;2024-02-21T05:11:59;10.10;44.10
3868;DHT22;1949;48.152;11.528;2024-02-21T05:14:25;10.10;44.10
3868;DHT22;1949;48.152;11.528;2024-02-21T05:16:52;10.10;44.20
3868;DHT22;1949;48.152;11.528;2024-02-21T05:19:19;10.20;44.30
3868;DHT22;1949;48.152;11.528;2024-02-21T05:21:45;10.20;44.30
3868;DHT22;1949;48.152;11.528;2024-02-21T05:24:11;10.20;44.30
3868;DHT22;1949;48.152;11.528;2024-02-21T05:26:37;10.20;44.00
3868;DHT22;1949;48.152;11.528;2024-02-21T05:29:02;10.20;44.00
3868;DHT22;1949;48.152;11.528;2024-02-21T05:32:07;10.20;44.10
3868;DHT22;1949;48.152;11.528;2024-02-21T05:34:32;10.20;44.10
3868;DHT22;1949;48.152;11.528;2024-02-21T05:37:00;10.10;44.00
3868;DHT22;1949;48.152;11.528;2024-02-21T05:39:26;10.10;43.90
3868;DHT22;1949;48.152;11.528;2024-02-21T05:41:52;10.10;44.00
3868;DHT22;1949;48.152;11.528;2024-02-21T05:44:18;10.10;44.10
3868;DHT22;1949;48.152;11.528;2024-02-21T05:46:44;10.10;44.10
3868;DHT22;1949;48.152;11.528;2024-02-21T05:49:10;10.10;44.00
3868;DHT22;1949;48.152;11.528;2024-02-21T05:51:36;10.00;43.90
3868;DHT22;1949;48.152;11.528;2024-02-21T05:54:14;10.00;44.00
3868;DHT22;1949;48.152;11.528;2024-02-21T05:56:44;9.90;44.90
3868;DHT22;1949;48.152;11.528;2024-02-21T05:59:10;9.90;45.10
3868;DHT22;1949;48.152;11.528;2024-02-21T06:01:37;10.00;44.10
3868;DHT22;1949;48.152;11.528;2024-02-21T06:04:02;10.00;44.10
3868;DHT22;1949;48.152;11.528;2024-02-21T06:06:29;10.00;44.00
3868;DHT22;1949;48.152;11.528;2024-02-21T06:08:56;10.00;43.90
3868;DHT22;1949;48.152;11.528;2024-02-21T06:11:21;10.00;43.90
3868;DHT22;1949;48.152;11.528;2024-02-21T06:13:49;9.90;44.80
3868;DHT22;1949;48.152;11.528;2024-02-21T06:16:18;9.90;44.90
3868;DHT22;1949;48.152;11.528;2024-02-21T06:18:47;9.90;44.90
3868;DHT22;1949;48.152;11.528;2024-02-21T06:21:13;9.80;44.90
3868;DHT22;1949;48.152;11.528;2024-02-21T06:23:39;9.80;44.90
3868;DHT22;1949;48.152;11.528;2024-02-21T06:26:07;9.80;44.90
3868;DHT22;1949;48.152;11.528;2024-02-21T06:28:34;9.90;45.20
3868;DHT22;1949;48.152;11.528;2024-02-21T06:31:00;9.90;45.00
3868;DHT22;1949;48.152;11.528;2024-02-21T06:33:26;9.90;44.80
3868;DHT22;1949;48.152;11.528;2024-02-21T06:35:51;9.80;44.80
3868;DHT22;1949;48.152;11.528;2024-02-21T06:38:20;9.80;45.00
3868;DHT22;1949;48.152;11.528;2024-02-21T06:40:46;9.80;44.90
3868;DHT22;1949;48.152;11.528;2024-02-21T06:43:17;9.90;44.90
3868;DHT22;1949;48.152;11.528;2024-02-21T06:45:47;9.80;44.70
3868;DHT22;1949;48.152;11.528;2024-02-21T06:48:16;9.80;44.90
3868;DHT22;1949;48.152;11.528;2024-02-21T06:50:42;9.90;44.90
3868;DHT22;1949;48.152;11.528;2024-02-21T06:53:08;9.80;44.80
3868;DHT22;1949;48.152;11.528;2024-02-21T06:55:37;9.80;44.80
3868;DHT22;1949;48.152;11.528;2024-02-21T06:58:03;9.90;45.00
3868;DHT22;1949;48.152;11.528;2024-02-21T07:00:33;9.90;44.90
3868;DHT22;1949;48.152;11.528;2024-02-21T07:02:58;9.90;44.80
3868;DHT22;1949;48.152;11.528;2024-02-21T07:05:24;10.00;44.00
3868;DHT22;1949;48.152;11.528;2024-02-21T07:07:50;10.10;44.00
3868;DHT22;1949;48.152;11.528;2024-02-21T07:10:16;10.10;44.00
3868;DHT22;1949;48.152;11.528;2024-02-21T07:12:43;10.20;44.00
3868;DHT22;1949;48.152;11.528;2024-02-21T07:15:10;10.20;44.00
3868;DHT22;1949;48.152;11.528;2024-02-21T07:17:42;10.30;43.90
3868;DHT22;1949;48.152;11.528;2024-02-21T07:20:08;10.30;44.50
3868;DHT22;1949;48.152;11.528;2024-02-21T07:22:37;10.40;43.80
3868;DHT22;1949;48.152;11.528;2024-02-21T07:25:05;10.40;43.70
3868;DHT22;1949;48.152;11.528;2024-02-21T07:27:31;10.40;43.60
3868;DHT22;1949;48.152;11.528;2024-02-21T07:29:59;10.40;43.50
3868;DHT22;1949;48.152;11.528;2024-02-21T07:32:31;10.40;43.60
3868;DHT22;1949;48.152;11.528;2024-02-21T07:34:57;10.40;43.70
3868;DHT22;1949;48.152;11.528;2024-02-21T07:37:24;10.40;43.50
3868;DHT22;1949;48.152;11.528;2024-02-21T07:39:50;10.40;43.60
3868;DHT22;1949;48.152;11.528;2024-02-21T07:42:17;10.40;43.50
3868;DHT22;1949;48.152;11.528;2024-02-21T07:44:43;10.40;43.60
3868;DHT22;1949;48.152;11.528;2024-02-21T07:47:08;10.50;43.80
3868;DHT22;1949;48.152;11.528;2024-02-21T07:49:42;10.50;43.40
3868;DHT22;1949;48.152;11.528;2024-02-21T07:52:08;10.50;43.40
3868;DHT22;1949;48.152;11.528;2024-02-21T07:54:35;10.60;43.50
3868;DHT22;1949;48.152;11.528;2024-02-21T07:57:02;10.70;43.60
3868;DHT22;1949;48.152;11.528;2024-02-21T07:59:29;10.80;43.60
3868;DHT22;1949;48.152;11.528;2024-02-21T08:01:58;10.90;43.60
3868;DHT22;1949;48.152;11.528;2024-02-21T08:04:24;11.00;43.20
3868;DHT22;1949;48.152;11.528;2024-02-21T08:06:56;11.00;43.20
3868;DHT22;1949;48.152;11.528;2024-02-21T08:09:24;11.00;42.90
3868;DHT22;1949;48.152;11.528;2024-02-21T08:11:50;11.10;43.10
3868;DHT22;1949;48.152;11.528;2024-02-21T08:14:16;11.10;43.10
3868;DHT22;1949;48.152;11.528;2024-02-21T08:16:48;11.20;43.00
3868;DHT22;1949;48.152;11.528;2024-02-21T08:19:15;11.30;42.90
3868;DHT22;1949;48.152;11.528;2024-02-21T08:21:42;11.40;43.00
3868;DHT22;1949;48.152;11.528;2024-02-21T08:24:08;11.30;42.60
3868;DHT22;1949;48.152;11.528;2024-02-21T08:26:34;11.40;42.60
3868;DHT22;1949;48.152;11.528;2024-02-21T08:29:01;11.30;42.50
3868;DHT22;1949;48.152;11.528;2024-02-21T08:31:27;11.30;42.40
3868;DHT22;1949;48.152;11.528;2024-02-21T08:34:01;11.30;42.50
3868;DHT22;1949;48.152;11.528;2024-02-21T08:36:31;11.30;42.50
3868;DHT22;1949;48.152;11.528;2024-02-21T08:38:58;11.40;42.70
3868;DHT22;1949;48.152;11.528;2024-02-21T08:41:24;11.50;42.90
3868;DHT22;1949;48.152;11.528;2024-02-21T08:43:54;11.50;42.60
3868;DHT22;1949;48.152;11.528;2024-02-21T08:46:20;11.50;42.20
3868;DHT22;1949;48.152;11.528;2024-02-21T08:48:47;11.60;42.30
3868;DHT22;1949;48.152;11.528;2024-02-21T08:51:14;11.50;42.20
3868;DHT22;1949;48.152;11.528;2024-02-21T08:53:40;11.50;42.30
3868;DHT22;1949;48.152;11.528;2024-02-21T08:56:06;11.60;42.50
3868;DHT22;1949;48.152;11.528;2024-02-21T08:58:33;11.60;42.30
3868;DHT22;1949;48.152;11.528;2024-02-21T09:00:59;11.60;42.10
3868;DHT22;1949;48.152;11.528;2024-02-21T09:03:25;11.60;42.10
3868;DHT22;1949;48.152;11.528;2024-02-21T09:05:50;11.60;42.10
3868;DHT22;1949;48.152;11.528;2024-02-21T09:08:16;11.60;42.30
3868;DHT22;1949;48.152;11.528;2024-02-21T09:10:42;11.70;42.50
3868;DHT22;1949;48.152;11.528;2024-02-21T09:13:08;11.80;42.40
3868;DHT22;1949;48.152;11.528;2024-02-21T09:15:34;11.90;42.50
3868;DHT22;1949;48.152;11.528;2024-02-21T09:18:00;12.00;42.10
3868;DHT22;1949;48.152;11.528;2024-02-21T09:20:25;12.10;42.30
3868;DHT22;1949;48.152;11.528;2024-02-21T09:22:51;12.20;42.00
3868;DHT22;1949;48.152;11.528;2024-02-21T09:25:23;12.20;41.90
3868;DHT22;1949;48.152;11.528;2024-02-21T09:27:49;12.30;42.10
3868;DHT22;1949;48.152;11.528;2024-02-21T09:30:14;12.40;42.20
3868;DHT22;1949;48.152;11.528;2024-02-21T09:32:42;12.50;42.30
3868;DHT22;1949;48.152;11.528;2024-02-21T09:35:08;12.60;42.00
3868;DHT22;1949;48.152;11.528;2024-02-21T09:37:34;12.70;41.70
3868;DHT22;1949;48.152;11.528;2024-02-21T09:39:59;12.70;41.70
3868;DHT22;1949;48.152;11.528;2024-02-21T09:42:37;12.80;41.60
3868;DHT22;1949;48.152;11.528;2024-02-21T09:45:08;12.80;41.60
3868;DHT22;1949;48.152;11.528;2024-02-21T09:50:29;12.90;41.40
3868;DHT22;1949;48.152;11.528;2024-02-21T09:52:59;13.00;41.50
3868;DHT22;1949;48.152;11.528;2024-02-21T09:55:28;13.10;41.40
3868;DHT22;1949;48.152;11.528;2024-02-21T09:57:54;13.20;41.40
3868;DHT22;1949;48.152;11.528;2024-02-21T10:00:22;13.20;41.20
3868;DHT22;1949;48.152;11.528;2024-02-21T10:02:49;13.20;40.90
3868;DHT22;1949;48.152;11.528;2024-02-21T10:05:17;13.20;41.10
3868;DHT22;1949;48.152;11.528;2024-02-21T10:07:43;13.20;41.20
3868;DHT22;1949;48.152;11.528;2024-02-21T10:10:09;13.30;41.10
3868;DHT22;1949;48.152;11.528;2024-02-21T10:12:48;13.30;41.00
3868;DHT22;1949;48.152;11.528;2024-02-21T10:15:22;13.30;41.00
3868;DHT22;1949;48.152;11.528;2024-02-21T10:17:50;13.30;40.90
3868;DHT22;1949;48.152;11.528;2024-02-21T10:20:23;13.30;40.90
3868;DHT22;1949;48.152;11.528;2024-02-21T10:22:49;13.30;40.80
3868;DHT22;1949;48.152;11.528;2024-02-21T10:25:16;13.30;40.60
3868;DHT22;1949;48.152;11.528;2024-02-21T10:27:43;13.30;40.70
3868;DHT22;1949;48.152;11.528;2024-02-21T10:30:13;13.40;40.80
3868;DHT22;1949;48.152;11.528;2024-02-21T10:32:53;13.50;40.70
3868;DHT22;1949;48.152;11.528;2024-02-21T10:35:46;13.50;40.70
3868;DHT22;1949;48.152;11.528;2024-02-21T10:38:12;13.60;41.00
3868;DHT22;1949;48.152;11.528;2024-02-21T10:40:38;13.70;40.80
3868;DHT22;1949;48.152;11.528;2024-02-21T10:43:05;13.70;40.50
3868;DHT22;1949;48.152;11.528;2024-02-21T10:45:36;13.80;40.50
3868;DHT22;1949;48.152;11.528;2024-02-21T10:48:10;13.80;40.30
3868;DHT22;1949;48.152;11.528;2024-02-21T10:51:18;13.80;40.40
3868;DHT22;1949;48.152;11.528;2024-02-21T10:56:33;13.90;40.10
3868;DHT22;1949;48.152;11.528;2024-02-21T10:59:04;14.00;40.10
3868;DHT22;1949;48.152;11.528;2024-02-21T11:01:30;14.00;40.00
3868;DHT22;1949;48.152;11.528;2024-02-21T11:04:11;14.00;40.10
3868;DHT22;1949;48.152;11.528;2024-02-21T11:06:38;14.00;39.90
3868;DHT22;1949;48.152;11.528;2024-02-21T11:09:08;14.10;39.80
3868;DHT22;1949;48.152;11.528;2024-02-21T11:11:38;14.10;39.70
3868;DHT22;1949;48.152;11.528;2024-02-21T11:16:42;14.10;39.50
3868;DHT22;1949;48.152;11.528;2024-02-21T11:19:27;14.20;39.40
3868;DHT22;1949;48.152;11.528;2024-02-21T11:21:55;14.20;39.40
3868;DHT22;1949;48.152;11.528;2024-02-21T11:24:31;14.30;39.30
3868;DHT22;1949;48.152;11.528;2024-02-21T11:27:21;14.40;39.30
3868;DHT22;1949;48.152;11.528;2024-02-21T11:29:56;14.40;39.10
3868;DHT22;1949;48.152;11.528;2024-02-21T11:32:25;14.50;38.80
3868;DHT22;1949;48.152;11.528;2024-02-21T11:35:02;14.50;38.90
3868;DHT22;1949;48.152;11.528;2024-02-21T11:37:32;14.60;38.60
3868;DHT22;1949;48.152;11.528;2024-02-21T11:40:03;14.60;38.40
3868;DHT22;1949;48.152;11.528;2024-02-21T11:42:29;14.60;38.30
3868;DHT22;1949;48.152;11.528;2024-02-21T11:45:00;14.60;38.30
3868;DHT22;1949;48.152;11.528;2024-02-21T11:47:28;14.60;38.00
3868;DHT22;1949;48.152;11.528;2024-02-21T11:49:55;14.70;38.00
3868;DHT22;1949;48.152;11.528;2024-02-21T11:52:22;14.70;38.10
3868;DHT22;1949;48.152;11.528;2024-02-21T11:54:54;14.80;38.10
3868;DHT22;1949;48.152;11.528;2024-02-21T11:57:20;14.80;37.80
3868;DHT22;1949;48.152;11.528;2024-02-21T11:59:46;14.90;37.90
3868;DHT22;1949;48.152;11.528;2024-02-21T12:02:16;15.00;37.80
3868;DHT22;1949;48.152;11.528;2024-02-21T12:04:44;15.10;37.80
3868;DHT22;1949;48.152;11.528;2024-02-21T12:07:10;15.20;37.70
3868;DHT22;1949;48.152;11.528;2024-02-21T12:09:36;15.40;37.70
3868;DHT22;1949;48.152;11.528;2024-02-21T12:12:10;15.50;37.50
3868;DHT22;1949;48.152;11.528;2024-02-21T12:14:39;15.60;37.40
3868;DHT22;1949;48.152;11.528;2024-02-21T12:17:06;15.80;37.40
3868;DHT22;1949;48.152;11.528;2024-02-21T12:19:33;15.90;36.90
3868;DHT22;1949;48.152;11.528;2024-02-21T12:22:01;15.90;36.80
3868;DHT22;1949;48.152;11.528;2024-02-21T12:24:31;16.10;36.70
3868;DHT22;1949;48.152;11.528;2024-02-21T12:26:57;16.10;36.70
3868;DHT22;1949;48.152;11.528;2024-02-21T12:29:25;16.30;36.50
3868;DHT22;1949;48.152;11.528;2024-02-21T12:31:53;16.40;36.50
3868;DHT22;1949;48.152;11.528;2024-02-21T12:34:23;16.50;36.20
3868;DHT22;1949;48.152;11.528;2024-02-21T12:36:50;16.70;36.00
3868;DHT22;1949;48.152;11.528;2024-02-21T12:39:17;16.80;35.80
3868;DHT22;1949;48.152;11.528;2024-02-21T12:41:43;16.90;35.80
3868;DHT22;1949;48.152;11.528;2024-02-21T12:44:10;17.00;35.90
3868;DHT22;1949;48.152;11.528;2024-02-21T12:46:37;17.20;35.60
3868;DHT22;1949;48.152;11.528;2024-02-21T12:49:04;17.40;35.60
3868;DHT22;1949;48.152;11.528;2024-02-21T12:51:32;17.50;35.20
3868;DHT22;1949;48.152;11.528;2024-02-21T12:53:59;17.60;35.20
3868;DHT22;1949;48.152;11.528;2024-02-21T12:56:26;17.80;34.60
3868;DHT22;1949;48.152;11.528;2024-02-21T12:58:54;17.80;34.40
3868;DHT22;1949;48.152;11.528;2024-02-21T13:01:21;17.80;34.50
3868;DHT22;1949;48.152;11.528;2024-02-21T13:03:47;17.80;34.40
3868;DHT22;1949;48.152;11.528;2024-02-21T13:06:13;17.80;34.10
3868;DHT22;1949;48.152;11.528;2024-02-21T13:08:39;17.80;33.90
3868;DHT22;1949;48.152;11.528;2024-02-21T13:11:05;17.90;34.30
3868;DHT22;1949;48.152;11.528;2024-02-21T13:13:31;17.90;34.00
3868;DHT22;1949;48.152;11.528;2024-02-21T13:15:59;17.90;34.10
3868;DHT22;1949;48.152;11.528;2024-02-21T13:18:25;18.10;34.20
3868;DHT22;1949;48.152;11.528;2024-02-21T13:20:52;18.30;33.90
3868;DHT22;1949;48.152;11.528;2024-02-21T13:23:17;18.30;33.30
3868;DHT22;1949;48.152;11.528;2024-02-21T13:25:43;18.30;33.20
3868;DHT22;1949;48.152;11.528;2024-02-21T13:28:14;18.20;33.20
3868;DHT22;1949;48.152;11.528;2024-02-21T13:30:43;18.30;33.30
3868;DHT22;1949;48.152;11.528;2024-02-21T13:33:09;18.40;33.30
3868;DHT22;1949;48.152;11.528;2024-02-21T13:35:35;18.40;33.10
3868;DHT22;1949;48.152;11.528;2024-02-21T13:38:03;18.40;32.60
3868;DHT22;1949;48.152;11.528;2024-02-21T13:40:29;18.30;32.50
3868;DHT22;1949;48.152;11.528;2024-02-21T13:42:54;18.20;32.60
3868;DHT22;1949;48.152;11.528;2024-02-21T13:45:20;18.20;32.90
3868;DHT22;1949;48.152;11.528;2024-02-21T13:47:47;18.30;32.90
3868;DHT22;1949;48.152;11.528;2024-02-21T13:50:14;18.40;32.70
3868;DHT22;1949;48.152;11.528;2024-02-21T13:52:41;18.50;33.00
3868;DHT22;1949;48.152;11.528;2024-02-21T13:55:06;18.70;32.80
3868;DHT22;1949;48.152;11.528;2024-02-21T13:57:36;18.90;32.60
3868;DHT22;1949;48.152;11.528;2024-02-21T14:00:05;19.00;32.30
3868;DHT22;1949;48.152;11.528;2024-02-21T14:02:34;19.00;32.10
3868;DHT22;1949;48.152;11.528;2024-02-21T14:05:06;19.00;31.80
3868;DHT22;1949;48.152;11.528;2024-02-21T14:07:32;19.00;32.00
3868;DHT22;1949;48.152;11.528;2024-02-21T14:10:02;19.10;32.30
3868;DHT22;1949;48.152;11.528;2024-02-21T14:12:29;19.20;32.10
3868;DHT22;1949;48.152;11.528;2024-02-21T14:14:57;19.20;31.70
3868;DHT22;1949;48.152;11.528;2024-02-21T14:17:24;19.10;31.40
3868;DHT22;1949;48.152;11.528;2024-02-21T14:19:52;19.10;31.90
3868;DHT22;1949;48.152;11.528;2024-02-21T14:22:18;19.00;31.40
3868;DHT22;1949;48.152;11.528;2024-02-21T14:24:44;19.00;31.60
3868;DHT22;1949;48.152;11.528;2024-02-21T14:27:10;19.00;31.40
3868;DHT22;1949;48.152;11.528;2024-02-21T14:29:36;19.00;31.50
3868;DHT22;1949;48.152;11.528;2024-02-21T14:32:03;19.10;31.60
3868;DHT22;1949;48.152;11.528;2024-02-21T14:34:28;19.10;31.30
3868;DHT22;1949;48.152;11.528;2024-02-21T14:36:54;19.00;31.10
3868;DHT22;1949;48.152;11.528;2024-02-21T14:39:20;19.00;31.40
3868;DHT22;1949;48.152;11.528;2024-02-21T14:41:46;19.10;31.80
3868;DHT22;1949;48.152;11.528;2024-02-21T14:44:11;19.30;31.60
3868;DHT22;1949;48.152;11.528;2024-02-21T14:46:39;19.40;31.30
3868;DHT22;1949;48.152;11.528;2024-02-21T14:49:05;19.40;31.10
3868;DHT22;1949;48.152;11.528;2024-02-21T14:51:31;19.50;31.10
3868;DHT22;1949;48.152;11.528;2024-02-21T14:53:57;19.50;31.00
3868;DHT22;1949;48.152;11.528;2024-02-21T14:56:23;19.40;30.80
3868;DHT22;1949;48.152;11.528;2024-02-21T14:58:49;19.40;30.70
3868;DHT22;1949;48.152;11.528;2024-02-21T15:01:15;19.40;30.70
3868;DHT22;1949;48.152;11.528;2024-02-21T15:03:41;19.30;30.60
3868;DHT22;1949;48.152;11.528;2024-02-21T15:06:08;19.40;30.60
3868;DHT22;1949;48.152;11.528;2024-02-21T15:08:35;19.30;30.40
3868;DHT22;1949;48.152;11.528;2024-02-21T15:11:02;19.30;30.40
3868;DHT22;1949;48.152;11.528;2024-02-21T15:13:28;19.20;30.30
3868;DHT22;1949;48.152;11.528;2024-02-21T15:15:56;19.10;30.40
3868;DHT22;1949;48.152;11.528;2024-02-21T15:18:21;19.00;30.40
3868;DHT22;1949;48.152;11.528;2024-02-21T15:20:47;18.80;30.20
3868;DHT22;1949;48.152;11.528;2024-02-21T15:23:13;18.70;30.20
3868;DHT22;1949;48.152;11.528;2024-02-21T15:25:39;18.50;30.30
3868;DHT22;1949;48.152;11.528;2024-02-21T15:28:05;18.40;30.40
3868;DHT22;1949;48.152;11.528;2024-02-21T15:30:31;18.40;30.50
3868;DHT22;1949;48.152;11.528;2024-02-21T15:32:58;18.30;30.50
3868;DHT22;1949;48.152;11.528;2024-02-21T15:35:28;18.20;30.50
3868;DHT22;1949;48.152;11.528;2024-02-21T15:37:54;18.10;30.40
3868;DHT22;1949;48.152;11.528;2024-02-21T15:40:22;18.10;30.50
3868;DHT22;1949;48.152;11.528;2024-02-21T15:42:48;18.00;30.50
3868;DHT22;1949;48.152;11.528;2024-02-21T15:45:14;17.90;30.50
3868;DHT22;1949;48.152;11.528;2024-02-21T15:47:41;17.80;30.50
3868;DHT22;1949;48.152;11.528;2024-02-21T15:50:08;17.80;30.60
3868;DHT22;1949;48.152;11.528;2024-02-21T15:52:36;17.70;30.60
3868;DHT22;1949;48.152;11.528;2024-02-21T15:55:04;17.70;30.70
3868;DHT22;1949;48.152;11.528;2024-02-21T15:57:30;17.60;30.70